Terminal Aerodrome Forecast
Issued by NWS

Current Version | Previous Version | Text Only | Print | Product List | Glossary On
Versions: 1 2 3 4 5 6 7 8 9 10 11 12 13 14 15 16 17 18 19 20 21
000
FTUS41 KBGM 311734
TAFELM
TAF
KELM 311734Z 3118/0118 32008G15KT P6SM SCT060
     FM312200 35005KT P6SM SCT250
     FM011000 00000KT 4SM BR SCT035
     FM011200 00000KT P6SM SCT140=

USA.gov is the U.S. government's official web portal to all federal, state and local government web resources and services.